Minneapolis, Minnesota
Traffic Map
Current Weather Conditions
Minneapolis, Minnesota
Scattered Clouds
Scattered Clouds
68°
Feels Like: 68°
Wind Chill: 68° Ceiling: Unl
Heat Index: 68° Visibility: 10mi
Dew Point: 60° Wind: 6mph
Humidity: 76% Direction: 190° (S)
Pressure: 30.01in Gusts: 0mph
Raw Report DataKMSP 301553Z 19005KT 10SM FEW010 SCT300 20/16 A3001 RMK AO2 SLP158 T02000156
Traffic Incident Summary
Active as of:
Severity:
Category:
InformationThere was an issue retrieving the traffic information for this location. Please try a different location or try again shortly.
Advertisements
Track Severe Weather on mobile